Tiempo atmosférico en la estación meteorológica de Serradilla, Cáceres (410 m.)



Fecha
DESCASC
Temp. máxima en grados centígrados (hora)
DESCASC
Temp. mínima en grados centígrados (hora)
DESCASC
Temp. media en grados centígrados
DESCASC
Racha de viento máxima en m/sg (hora)
DESCASC
Velocidad máxima media en intervalos de 10 minutos(hora)
DESCASC
Precipitaciones diarias en mm
DESCASC
Precipitaciones de 00:00 a 06:00 en mm
DESCASC
Precipitaciones de 06:00 a 12:00 en mm
DESCASC
Precipitaciones de 12:00 a 18:00 en mm
DESCASC
Precipitaciones de 18:00 a 24:00 en mm
DESCASC
29-10-2020 19.4 (16:00) 12 (08:00) 15.7 8.89 (12:10) 5.56 (12:20) 0 0 0 0 0
28-10-2020 16 (15:40) 12 (05:20) 14 3.61 (16:10) 2.22 (16:10) 1.6 0.2 0.8 0.4 0.2
27-10-2020 14.2 (17:10) 5.3 (00:00) 9.8 6.94 (13:40) 3.89 (13:40) 0 0 0 0 0
26-10-2020 14.9 (15:50) 8.1 (00:00) 11.5 9.72 (11:20) 5.28 (12:50) 0 0 0 0 0
25-10-2020 15 (13:20) 10.6 (00:00) 12.8 11.39 (12:20) 6.94 (11:30) 6.4 0.4 0.4 5.2 0.4
24-10-2020 17.2 (16:30) 7.6 (00:00) 12.4 7.78 (14:10) 4.72 (15:00) 0 0 0 0 0
23-10-2020 17.6 (17:00) 10.6 (00:00) 14.1 7.78 (16:00) 3.61 (17:50) 4.6 0 4.6 0 0
22-10-2020 18.6 (14:50) 10.8 (00:00) 14.7 13.61 (20:50) 4.17 (15:00) 16.2 5.4 1.4 2.6 6.8
21-10-2020 20.1 (17:00) 13.3 (00:00) 16.7 11.67 (00:50) 6.94 (16:50) 10.8 2 0.4 0 8.4
20-10-2020 19.2 (00:20) 13.7 (00:00) 16.5 14.17 (19:00) 7.78 (19:00) 43.8 6.2 3.2 10.6 23.8
19-10-2020 22.8 (18:50) 10.9 (00:00) 16.8 8.61 (12:00) 6.11 (10:10) 0.4 0 0 0 0.4
18-10-2020 22.7 (17:10) 9 (00:00) 15.9 9.17 (19:10) 6.39 (18:40) 0 0 0 0 0
17-10-2020 21.8 (18:40) 7.5 (00:00) 14.6 5 (09:10) 3.33 (09:10) 0 0 0 0 0
16-10-2020 19.7 (17:00) 7.6 (00:00) 13.7 7.78 (09:20) 5.28 (09:20) 0 0 0 0 0
15-10-2020 20 (16:40) 10 (00:00) 15 11.39 (00:50) 6.94 (02:10) 0 0 0 0 0
14-10-2020 19.5 (16:40) 10.6 (00:00) 15.1 17.22 (06:20) 10.56 (06:40) 0 0 0 0 0
13-10-2020 25.2 (17:40) 8.3 (00:00) 16.8 10.56 (21:40) 7.22 (21:10) 0 0 0 0 0
12-10-2020 21.6 (18:20) 9.9 (00:00) 15.8 7.5 (20:20) 4.17 (11:00) 0 0 0 0 0
11-10-2020 22.9 (17:10) 13.1 (00:00) 18 14.44 (11:00) 8.33 (10:40) 0 0 0 0 0
10-10-2020 -- (--) -- (--) -- -- (--) -- (--) -- 0 0 0 --
09-10-2020 29 (17:10) 14.2 (00:00) 21.6 5 (10:20) 3.33 (10:50) 0 0 0 0 0
08-10-2020 29 (16:10) 14.7 (00:00) 21.8 7.78 (10:50) 5.56 (09:30) 0 0 0 0 0
07-10-2020 27.5 (16:30) 15.1 (00:00) 21.3 9.72 (06:00) 6.11 (01:30) 0 0 0 0 0
06-10-2020 26.9 (17:10) 13.6 (00:00) 20.3 10 (11:40) 6.11 (02:00) 0 0 0 0 0
05-10-2020 21.8 (17:20) 11.2 (00:00) 16.5 9.72 (02:10) 5 (01:40) 0 0 0 0 0
04-10-2020 20.5 (16:50) 8.1 (00:00) 14.3 11.39 (18:00) 6.11 (17:40) 0 0 0 0 0
03-10-2020 18.8 (17:00) 8.7 (00:00) 13.7 11.94 (12:10) 6.39 (15:20) 0 0 0 0 0
02-10-2020 16.9 (09:00) 11.2 (00:00) 14 16.11 (08:20) 9.44 (08:20) 2.4 0 1.4 1 0
01-10-2020 23.8 (16:40) 10.9 (00:00) 17.3 11.67 (18:30) 7.22 (18:40) 0 0 0 0 0

Gráficas

Temp. máximas Temp. mínimas Temp. medias Precipitaciones Rachas de viento máximas Velocidades máximas media en intervalos de 10 minutos

Datos horarios

Fecha y hora oficial Temperatura (ºC) Velocidad del viento (km/h) Dirección del viento Racha (km/h) Dirección de racha Precipitación (mm) Presión (hPa) Tendencia (hPa) Humedad (%)
2020-10-30 23:00:00 16.2 12 Nordeste 19 Nordeste 0 -- -- 77
2020-10-30 22:00:00 16.6 11 Nordeste 18 Nordeste 0 -- -- 75
2020-10-30 21:00:00 16.4 11 Nordeste 17 Este 0 -- -- 75
2020-10-30 20:00:00 17.1 10 Nordeste 17 Nordeste 0 -- -- 73
2020-10-30 19:00:00 18 9 Este 17 Nordeste 0 -- -- 70
2020-10-30 18:00:00 18.8 9 Nordeste 19 Nordeste 0 -- -- 67
2020-10-30 17:00:00 20.1 12 Nordeste 19 Nordeste 0 -- -- 63
2020-10-30 16:00:00 20.5 14 Este 21 Este 0 -- -- 62
2020-10-30 15:00:00 20.3 10 Nordeste 22 Nordeste 0 -- -- 63
2020-10-30 14:00:00 19.2 15 Nordeste 26 Nordeste 0 -- -- 64
2020-10-30 13:00:00 17.9 17 Nordeste 32 Nordeste 0 -- -- 68
2020-10-30 12:00:00 16.5 19 Este 30 Este 0 -- -- 70
2020-10-30 11:00:00 14.6 21 Nordeste 35 Nordeste 0 -- -- 75
2020-10-30 10:00:00 12.8 24 Nordeste 45 Nordeste 0 -- -- 80
2020-10-30 09:00:00 11.5 20 Nordeste 33 Nordeste 0 -- -- 84
2020-10-30 08:00:00 10.8 19 Nordeste 36 Nordeste 0 -- -- 87
2020-10-30 07:00:00 11.3 19 Nordeste 36 Nordeste 0 -- -- 85
2020-10-30 06:00:00 11.8 21 Nordeste 30 Nordeste 0 -- -- 84
2020-10-30 05:00:00 11.7 14 Nordeste 35 Nordeste 0 -- -- 86
2020-10-30 04:00:00 12.3 22 Nordeste 31 Nordeste 0 -- -- 83
2020-10-30 03:00:00 12.5 12 Nordeste 29 Este 0 -- -- 83
2020-10-30 02:00:00 13.3 16 Nordeste 29 Nordeste 0 -- -- 79
2020-10-30 01:00:00 13.9 18 Nordeste 29 Nordeste 0 -- -- 77
2020-10-30 00:00:00 14.1 20 Nordeste 28 Nordeste 0 -- -- 77
2020-10-29 23:00:00 14.4 18 Nordeste 30 Nordeste 0 -- -- 79
2020-10-29 22:00:00 15 16 Nordeste 28 Nordeste 0 -- -- 78
2020-10-29 21:00:00 15.6 15 Nordeste 26 Nordeste 0 -- -- 77
2020-10-29 20:00:00 16.3 16 Nordeste 24 Este 0 -- -- 75
2020-10-29 19:00:00 16.5 12 Este 22 Nordeste 0 -- -- 73
2020-10-29 18:00:00 17.9 16 Nordeste 24 Este 0 -- -- 68
2020-10-29 17:00:00 19 15 Nordeste 24 Nordeste 0 -- -- 65
2020-10-29 16:00:00 19.4 13 Nordeste 24 Nordeste 0 -- -- 64
2020-10-29 15:00:00 19.2 14 Nordeste 28 Nordeste 0 -- -- 68
2020-10-29 14:00:00 18.5 17 Este 31 Este 0 -- -- 70
2020-10-29 13:00:00 17.6 19 Nordeste 32 Este 0 -- -- 73
2020-10-29 12:00:00 16.6 15 Nordeste 25 Nordeste 0 -- -- 83
2020-10-29 11:00:00 14.5 13 Nordeste 22 Este 0 -- -- 93
2020-10-29 10:00:00 13.6 8 Nordeste 23 Nordeste 0 -- -- 95
2020-10-29 09:00:00 12.7 13 Nordeste 22 Nordeste 0 -- -- 99
2020-10-29 08:00:00 12 10 Nordeste 14 Nordeste 0 -- -- 97
2020-10-29 07:00:00 12.6 8 Nordeste 16 Este 0 -- -- 98
2020-10-29 06:00:00 12.9 8 Nordeste 15 Nordeste 0 -- -- 99
2020-10-29 05:00:00 13 8 Nordeste 15 Nordeste 0 -- -- 100
2020-10-29 04:00:00 13.1 7 Nordeste 13 Nordeste 0 -- -- 100
2020-10-29 03:00:00 13.1 5 Este 14 Nordeste 0 -- -- 100
2020-10-29 02:00:00 13.3 3 Este 9 Norte 0 -- -- 100
2020-10-29 01:00:00 13.6 0 Calma 5 Norte 0 -- -- 100
2020-10-29 00:00:00 13.7 0 Calma 4 Nordeste 0.2 -- -- 100
2020-10-28 23:00:00 13.8 2 Oeste 5 Oeste 0 -- -- 100
2020-10-28 22:00:00 13.6 4 Oeste 5 Oeste 0 -- -- 99
2020-10-28 21:00:00 13.6 0 Calma -- -- 0 -- -- 98
2020-10-28 20:00:00 14.5 0 Calma -- -- 0 -- -- 97
2020-10-28 19:00:00 15.1 0 Calma 3 Noroeste 0 -- -- 97
2020-10-28 18:00:00 15.3 2 Oeste 8 Noroeste 0.2 -- -- 96
2020-10-28 17:00:00 15.6 4 Oeste 13 Sudoeste 0 -- -- 94
2020-10-28 16:00:00 16 4 Sudoeste 10 Sudoeste 0 -- -- 92
2020-10-28 15:00:00 15.6 6 Sudoeste 10 Oeste 0 -- -- 94
2020-10-28 14:00:00 15.2 6 Sudoeste 12 Sudoeste 0 -- -- 96
2020-10-28 13:00:00 14.4 6 Sudoeste 12 Sudoeste 0.2 -- -- 97
2020-10-28 12:00:00 14.1 6 Sudoeste 12 Sur 0 -- -- 97
2020-10-28 11:00:00 13.3 6 Sudoeste 10 Sudoeste 0 -- -- 98
2020-10-28 10:00:00 12.8 6 Sudoeste 9 Sudoeste 0.4 -- -- 99
2020-10-28 09:00:00 12.3 2 Sudoeste 8 Sudoeste 0.2 -- -- 99
2020-10-28 08:00:00 12 4 Oeste 10 Sudoeste 0.2 -- -- 99
2020-10-28 07:00:00 12 4 Sudoeste 9 Sudoeste 0 -- -- 99
2020-10-28 06:00:00 12 4 Sudoeste 10 Sudoeste 0.2 -- -- 99
2020-10-28 05:00:00 12.1 4 Sudoeste 8 Sudoeste 0 -- -- 98
2020-10-28 04:00:00 12.1 5 Sudoeste 10 Oeste 0 -- -- 97
2020-10-28 03:00:00 12.7 5 Sudoeste 11 Sudoeste 0 -- -- 91
2020-10-28 02:00:00 12.8 0 Calma 10 Oeste 0 -- -- 89
2020-10-28 01:00:00 12.9 5 Sudoeste 8 Sudoeste 0 -- -- 87
2020-10-28 00:00:00 12.8 0 Calma 2 Oeste 0 -- -- 88
2020-10-27 23:00:00 13 2 Sudoeste 4 Sudoeste 0 -- -- 85
2020-10-27 22:00:00 13 3 Sudoeste 5 Sudoeste 0 -- -- 85
2020-10-27 21:00:00 13.1 0 Calma 7 Oeste 0 -- -- 83
2020-10-27 20:00:00 13.2 4 Sudoeste 8 Oeste 0 -- -- 81
2020-10-27 19:00:00 13.7 5 Sudoeste 11 Oeste 0 -- -- 76
2020-10-27 18:00:00 14 6 Sudoeste 17 Sudoeste 0 -- -- 74
2020-10-27 17:00:00 14.1 9 Sudoeste 15 Sudoeste 0 -- -- 73
2020-10-27 16:00:00 13.9 5 Oeste 15 Oeste 0 -- -- 74
2020-10-27 15:00:00 13.9 7 Oeste 20 Noroeste 0 -- -- 72
2020-10-27 14:00:00 13.9 12 Oeste 25 Oeste 0 -- -- 71
2020-10-27 13:00:00 13 9 Sudoeste 21 Sudoeste 0 -- -- 79
2020-10-27 12:00:00 12.5 10 Sudoeste 18 Sudoeste 0 -- -- 79
2020-10-27 11:00:00 11.5 5 Sur 10 Sudoeste 0 -- -- 82
2020-10-27 10:00:00 9.6 5 Sudoeste 11 Sudoeste 0 -- -- 87
2020-10-27 09:00:00 6.8 0 Calma 3 Norte 0 -- -- 94
2020-10-27 08:00:00 5.6 0 Calma 4 Este 0 -- -- 96
2020-10-27 07:00:00 6.1 2 Este 3 Nordeste 0 -- -- 96
2020-10-27 06:00:00 5.3 0 Calma 8 Sudeste 0 -- -- 94
2020-10-27 05:00:00 7.1 3 Noroeste 8 Sudeste 0 -- -- 87
2020-10-27 04:00:00 6.3 4 Sudoeste 6 Sudoeste 0 -- -- 90
2020-10-27 03:00:00 7.2 2 Nordeste 12 Oeste 0 -- -- 85
2020-10-27 02:00:00 8.4 5 Oeste 9 Oeste 0 -- -- 78
2020-10-27 01:00:00 8.8 4 Sudoeste 15 Noroeste 0 -- -- 76
2020-10-27 00:00:00 10.7 10 Noroeste 20 Noroeste 0 -- -- 67
2020-10-26 23:00:00 10.6 10 Noroeste 15 Noroeste 0 -- -- 68
2020-10-26 22:00:00 11.3 10 Noroeste 18 Noroeste 0 -- -- 65
2020-10-26 21:00:00 10.9 5 Oeste 10 Noroeste 0 -- -- 65
2020-10-26 20:00:00 11.5 5 Noroeste 16 Noroeste 0 -- -- 62
2020-10-26 19:00:00 12.4 7 Oeste 24 Noroeste 0 -- -- 61
2020-10-26 18:00:00 13.7 13 Oeste 24 Oeste 0 -- -- 54
2020-10-26 17:00:00 14.5 13 Noroeste 24 Noroeste 0 -- -- 52
2020-10-26 16:00:00 14.9 10 Oeste 28 Noroeste 0 -- -- 53
2020-10-26 15:00:00 14.2 15 Noroeste 32 Norte 0 -- -- 55
2020-10-26 14:00:00 13.8 16 Noroeste 35 Noroeste 0 -- -- 56
2020-10-26 13:00:00 13 19 Noroeste 35 Noroeste 0 -- -- 59
2020-10-26 12:00:00 12.3 15 Noroeste 35 Noroeste 0 -- -- 63
2020-10-26 11:00:00 11.2 18 Noroeste 32 Norte 0 -- -- 67
2020-10-26 10:00:00 10.4 12 Noroeste 22 Oeste 0 -- -- 71
2020-10-26 09:00:00 9.2 10 Oeste 23 Oeste 0 -- -- 76
2020-10-26 08:00:00 8.2 8 Oeste 23 Oeste 0 -- -- 81
2020-10-26 07:00:00 8.5 10 Oeste 23 Oeste 0 -- -- 80
2020-10-26 06:00:00 8.2 10 Sudoeste 19 Oeste 0 -- -- 91
2020-10-26 05:00:00 8.4 7 Oeste 15 Sudoeste 0 -- -- 91
2020-10-26 04:00:00 9.2 8 Oeste 15 Oeste 0 -- -- 88
2020-10-26 03:00:00 9.3 5 Oeste 21 Oeste 0 -- -- 88
2020-10-26 02:00:00 9.8 9 Oeste 19 Oeste 0 -- -- 84
2020-10-26 01:00:00 9.8 9 Oeste 22 Sudoeste 0 -- -- 87
2020-10-26 00:00:00 10.6 6 Oeste 18 Oeste 0 -- -- 87
2020-10-25 23:00:00 11.4 9 Oeste 22 Sudoeste 0 -- -- 83
2020-10-25 22:00:00 11.6 11 Sudoeste 23 Oeste 0 -- -- 82
2020-10-25 21:00:00 11.2 6 Oeste 15 Sudoeste 0 -- -- 89
2020-10-25 20:00:00 12.1 10 Oeste 17 Oeste 0 -- -- 90
2020-10-25 19:00:00 13.3 10 Oeste 22 Sudoeste 0.4 -- -- 96
2020-10-25 18:00:00 13.8 15 Sudoeste 28 Sudoeste 0 -- -- 94
2020-10-25 17:00:00 14.2 15 Sudoeste 37 Sudoeste 0 -- -- 96
2020-10-25 16:00:00 14.5 22 Sudoeste 37 Sudoeste 0.6 -- -- 97
2020-10-25 15:00:00 14.3 17 Sudoeste 31 Sudoeste 3 -- -- 98
2020-10-25 14:00:00 14.4 19 Sudoeste 39 Sudoeste 1.6 -- -- 94
2020-10-25 13:00:00 14.8 23 Sudoeste 41 Sudoeste 0 -- -- 88
2020-10-25 12:00:00 14.4 21 Sudoeste 40 Sur 0 -- -- 88
2020-10-25 11:00:00 13.7 18 Sudoeste 33 Sur 0.2 -- -- 92
2020-10-25 10:00:00 13.3 18 Sur 29 Sur 0 -- -- 92
2020-10-25 09:00:00 12.5 14 Sudoeste 24 Sur 0 -- -- 94
2020-10-25 08:00:00 12 9 Sur 21 Sudoeste 0 -- -- 96
2020-10-25 07:00:00 12.1 17 Sudoeste 33 Sudoeste 0.2 -- -- 95
2020-10-25 06:00:00 12.4 8 Sudoeste 24 Sur 0.4 -- -- 88
2020-10-25 05:00:00 13 8 Sudoeste 18 Sudoeste 0 -- -- 85
2020-10-25 04:00:00 13.3 9 Sudoeste 18 Sudoeste 0 -- -- 83
2020-10-25 03:00:00 13.5 8 Sudoeste 14 Sudoeste 0 -- -- 81
2020-10-25 02:00:00 13.8 6 Sur 13 Sudoeste 0 -- -- 80
2020-10-25 01:00:00 13.2 2 Oeste 11 Sudoeste 0 -- -- 82
2020-10-25 00:00:00 13.9 5 Sudoeste 8 Sudoeste 0 -- -- 77
2020-10-24 23:00:00 13.8 2 Sudeste 4 Sudeste 0 -- -- 80
2020-10-24 22:00:00 13.8 3 Oeste 5 Oeste 0 -- -- 77
2020-10-24 21:00:00 14.2 2 Oeste 6 Oeste 0 -- -- 74
2020-10-24 20:00:00 13.8 5 Noroeste 14 Noroeste 0 -- -- 76
2020-10-24 19:00:00 15.8 7 Sudoeste 15 Oeste 0 -- -- 65
2020-10-24 18:00:00 16.6 7 Oeste 21 Oeste 0 -- -- 62
2020-10-24 17:00:00 17 8 Sudoeste 21 Sudoeste 0 -- -- 61
2020-10-24 16:00:00 16.8 12 Sudoeste 25 Sudoeste 0 -- -- 61
2020-10-24 15:00:00 16.6 17 Sudoeste 28 Sur 0 -- -- 63
2020-10-24 14:00:00 15.7 9 Sudoeste 18 Sudoeste 0 -- -- 64
2020-10-24 13:00:00 14.2 6 Sudoeste 17 Sudoeste 0 -- -- 75
2020-10-24 12:00:00 12.8 8 Sudoeste 14 Sudoeste 0 -- -- 79
2020-10-24 11:00:00 12.2 2 Sur 5 Sur 0 -- -- 85
2020-10-24 10:00:00 9.9 3 Sudeste -- -- 0 -- -- 97
2020-10-24 09:00:00 7.6 3 Nordeste 4 Nordeste 0 -- -- 98
2020-10-24 08:00:00 8 2 Nordeste 4 Este 0 -- -- 98
2020-10-24 07:00:00 8.3 2 Nordeste 5 Este 0 -- -- 98
2020-10-24 06:00:00 8.3 3 Nordeste 5 Nordeste 0 -- -- 98
2020-10-24 05:00:00 8.7 4 Nordeste 5 Nordeste 0 -- -- 96
2020-10-24 04:00:00 9 0 Calma -- -- 0 -- -- 94
2020-10-24 03:00:00 9.5 0 Calma -- -- 0 -- -- 93
2020-10-24 02:00:00 9.9 0 Calma 5 Este 0 -- -- 92
2020-10-24 01:00:00 11.3 3 Oeste 8 Sudoeste 0 -- -- 85
2020-10-24 00:00:00 12.4 7 Oeste 10 Oeste 0 -- -- 80
2020-10-23 23:00:00 12 3 Noroeste 8 Sudoeste 0 -- -- 81
2020-10-23 22:00:00 13.4 4 Sudoeste 9 Noroeste 0 -- -- 74
2020-10-23 21:00:00 13.7 5 Noroeste 8 Noroeste 0 -- -- 73
2020-10-23 20:00:00 14.5 5 Oeste 13 Oeste 0 -- -- 69
2020-10-23 19:00:00 16.7 6 Oeste 19 Noroeste 0 -- -- 61
2020-10-23 18:00:00 17.3 10 Oeste 23 Oeste 0 -- -- 58
2020-10-23 17:00:00 17.6 8 Oeste 22 Noroeste 0 -- -- 64
2020-10-23 16:00:00 17.2 12 Oeste 28 Oeste 0 -- -- 63
2020-10-23 15:00:00 15.5 10 Noroeste 22 Norte 0 -- -- 73
2020-10-23 14:00:00 15.9 11 Sudoeste 21 Sudoeste 0 -- -- 75
2020-10-23 13:00:00 15 8 Sudoeste 21 Sudoeste 0 -- -- 83
2020-10-23 12:00:00 13.2 5 Sudoeste 14 Sudoeste 0 -- -- 92
2020-10-23 11:00:00 12.1 5 Sudoeste 9 Sur 0 -- -- 97
2020-10-23 10:00:00 11.1 3 Oeste 9 Oeste 0 -- -- 99
2020-10-23 09:00:00 10.6 5 Oeste 9 Oeste 0.4 -- -- 99
2020-10-23 08:00:00 11.1 5 Sudoeste 12 Sudoeste 4.2 -- -- 98
2020-10-23 07:00:00 11.2 3 Sudoeste 8 Sudoeste 0 -- -- 98
2020-10-23 06:00:00 11.2 4 Oeste 9 Sudoeste 0 -- -- 98
2020-10-23 05:00:00 11.2 4 Oeste 9 Oeste 0 -- -- 98
2020-10-23 04:00:00 11 5 Oeste 9 Oeste 0 -- -- 98
2020-10-23 03:00:00 11.1 5 Oeste 9 Oeste 0 -- -- 98
2020-10-23 02:00:00 11.1 3 Oeste 6 Sudoeste 0 -- -- 99
2020-10-23 01:00:00 11.2 2 Oeste 4 Sudoeste 0 -- -- 99
2020-10-23 00:00:00 11.4 0 Calma 5 Nordeste 0 -- -- 98
2020-10-22 23:00:00 10.9 2 Norte 10 Este 0.2 -- -- 98
2020-10-22 22:00:00 11 4 Sur 15 Sudoeste 2.8 -- -- 97
2020-10-22 21:00:00 11.3 7 Oeste 49 Oeste 3.8 -- -- 89
2020-10-22 20:00:00 14.9 4 Noroeste 10 Sudoeste 0 -- -- 83
2020-10-22 19:00:00 16.8 4 Sudoeste 12 Sudoeste 0 -- -- 73
2020-10-22 18:00:00 17.3 4 Oeste 17 Sudoeste 0 -- -- 73
2020-10-22 17:00:00 17 8 Sudoeste 16 Sudoeste 0 -- -- 78
2020-10-22 16:00:00 15.8 9 Sudoeste 27 Sudoeste 2.6 -- -- 88
2020-10-22 15:00:00 18.6 15 Sudoeste 24 Sur 0 -- -- 68
2020-10-22 14:00:00 17.4 10 Sur 17 Sur 0 -- -- 80
2020-10-22 13:00:00 16.2 4 Sur 12 Sudoeste 0 -- -- 87
2020-10-22 12:00:00 15.2 7 Sudoeste 16 Sudoeste 0 -- -- 93
2020-10-22 11:00:00 14.3 4 Sudoeste 9 Sudoeste 0.6 -- -- 97
2020-10-22 10:00:00 14.3 4 Sur 8 Sur 0.2 -- -- 98
2020-10-22 09:00:00 13.6 2 Sudeste 8 Este 0.6 -- -- 98
2020-10-22 08:00:00 13.4 2 Nordeste 7 Nordeste 0 -- -- 98
2020-10-22 07:00:00 13.4 3 Este 10 Sudeste 0 -- -- 97
2020-10-22 06:00:00 13.4 4 Este 13 Sudeste 0 -- -- 98
2020-10-22 05:00:00 13.5 8 Sudeste 13 Sudeste 0 -- -- 98
2020-10-22 04:00:00 13.8 3 Sudeste 11 Sudeste 0 -- -- 99
2020-10-22 03:00:00 13.7 5 Sudeste 15 Sudoeste 5 -- -- 99
2020-10-22 02:00:00 13.7 4 Sudeste 12 Sur 0.2 -- -- 99
2020-10-22 01:00:00 13.7 5 Sudeste 9 Este 0.2 -- -- 99
2020-10-22 00:00:00 13.6 5 Sudeste 9 Este 1 -- -- 99
2020-10-21 23:00:00 13.5 3 Este 10 Sudeste 0 -- -- 98
2020-10-21 22:00:00 13.6 5 Sudeste 14 Sur 3 -- -- 97
2020-10-21 21:00:00 13.9 3 Sudeste 17 Sudoeste 1 -- -- 95
2020-10-21 20:00:00 14 3 Sudoeste 23 Sudoeste 1.4 -- -- 94
2020-10-21 19:00:00 15.4 21 Sudoeste 35 Sudoeste 2 -- -- 84
2020-10-21 18:00:00 19.2 15 Sur 35 Sur 0 -- -- 54
2020-10-21 17:00:00 20.1 19 Sur 42 Sur 0 -- -- 53
2020-10-21 16:00:00 19.7 23 Sur 37 Sur 0 -- -- 57
2020-10-21 15:00:00 18.4 18 Sur 37 Sudoeste 0 -- -- 66
2020-10-21 14:00:00 17.4 17 Sudoeste 32 Sudoeste 0 -- -- 75
2020-10-21 13:00:00 17 18 Sur 36 Sur 0 -- -- 77
2020-10-21 12:00:00 15.9 19 Sudoeste 32 Sur 0 -- -- 87
2020-10-21 11:00:00 14.3 9 Sur 18 Sudeste 0 -- -- 96
2020-10-21 10:00:00 13.6 10 Sur 18 Sur 0 -- -- 98
2020-10-21 09:00:00 13.4 8 Sur 20 Sudoeste 0.2 -- -- 98
2020-10-21 08:00:00 13.4 12 Sudoeste 24 Sur 0.2 -- -- 98
2020-10-21 07:00:00 13.7 10 Sur 26 Sur 0 -- -- 97
2020-10-21 06:00:00 13.6 13 Sudoeste 22 Sur 0.2 -- -- 98
2020-10-21 05:00:00 13.6 14 Sur 23 Sur 1.4 -- -- 97
2020-10-21 04:00:00 13.7 10 Sur 30 Sur 0 -- -- 96
2020-10-21 03:00:00 13.8 18 Sur 29 Sur 0.4 -- -- 96
2020-10-21 02:00:00 13.9 13 Sur 35 Sur 0 -- -- 96
2020-10-21 01:00:00 14.2 18 Sur 42 Sur 0 -- -- 94
2020-10-21 00:00:00 13.7 5 Sur 17 Sudoeste 0.2 -- -- 98
2020-10-20 23:00:00 14.2 14 Sudoeste 50 Sudoeste 9.6 -- -- 97
2020-10-20 22:00:00 15.8 11 Sur 30 Sur 3.2 -- -- 97
2020-10-20 21:00:00 15.7 15 Sur 42 Sur 3.2 -- -- 96
2020-10-20 20:00:00 15.9 18 Sudeste 45 Sudeste 5.2 -- -- 96
2020-10-20 19:00:00 16.5 28 Sur 51 Sur 2.4 -- -- 92
2020-10-20 18:00:00 16.8 20 Sudeste 41 Sudeste 1.6 -- -- 94
2020-10-20 17:00:00 16.9 18 Sudeste 40 Este 0.6 -- -- 91
2020-10-20 16:00:00 16.5 21 Sudeste 44 Este 1.2 -- -- 90
2020-10-20 15:00:00 16.1 15 Este 29 Este 0.6 -- -- 97
2020-10-20 14:00:00 15 15 Este 31 Este 3.2 -- -- 99
2020-10-20 13:00:00 14.5 17 Este 25 Nordeste 3.4 -- -- 99
2020-10-20 12:00:00 14.5 10 Este 19 Este 2.2 -- -- 98
2020-10-20 11:00:00 14.5 11 Este 19 Este 0.6 -- -- 97
2020-10-20 10:00:00 14.7 8 Este 20 Este 0.2 -- -- 96
2020-10-20 09:00:00 14.7 6 Este 16 Este 0 -- -- 96
2020-10-20 08:00:00 14.3 10 Este 17 Nordeste 0 -- -- 94
2020-10-20 07:00:00 14.4 6 Este 20 Este 0.2 -- -- 94
2020-10-20 06:00:00 14 7 Nordeste 15 Nordeste 1.6 -- -- 95
2020-10-20 05:00:00 14.3 5 Nordeste 24 Sudeste 0.2 -- -- 93
2020-10-20 04:00:00 15.3 14 Sudeste 28 Sudeste 1.4 -- -- 86
2020-10-20 03:00:00 15 5 Nordeste 14 Este 0.8 -- -- 87
2020-10-20 02:00:00 16 5 Este 19 Sudeste 1.4 -- -- 77
2020-10-20 01:00:00 17.1 6 Sur 27 Sur 0.8 -- -- 71
2020-10-20 00:00:00 19.1 16 Sur 30 Sur 0.2 -- -- 58
2020-10-19 23:00:00 19.2 9 Sudeste 16 Sur 0 -- -- 57
2020-10-19 22:00:00 17.8 4 Nordeste 12 Sur 0.2 -- -- 65
2020-10-19 21:00:00 19.5 8 Sudoeste 22 Sudoeste 0 -- -- 58
2020-10-19 20:00:00 21.9 17 Sudoeste 30 Sudoeste 0 -- -- 40
2020-10-19 19:00:00 22.8 15 Sudoeste 23 Sudoeste 0 -- -- 32
2020-10-19 18:00:00 22.6 2 Noroeste 19 Nordeste 0 -- -- 33
2020-10-19 17:00:00 22.2 14 Nordeste 24 Este 0 -- -- 34
2020-10-19 16:00:00 22 13 Nordeste 25 Nordeste 0 -- -- 34
2020-10-19 15:00:00 21.9 15 Nordeste 26 Este 0 -- -- 35
2020-10-19 14:00:00 20.5 17 Nordeste 28 Este 0 -- -- 37
2020-10-19 13:00:00 18.9 18 Nordeste 31 Nordeste 0 -- -- 40
2020-10-19 12:00:00 17.3 19 Nordeste 31 Nordeste 0 -- -- 43
2020-10-19 11:00:00 13.8 20 Nordeste 30 Nordeste 0 -- -- 51
2020-10-19 10:00:00 12.4 15 Nordeste 24 Nordeste 0 -- -- 52
2020-10-19 09:00:00 10.9 9 Nordeste 18 Nordeste 0 -- -- 54
2020-10-19 08:00:00 12.1 11 Nordeste 18 Este 0 -- -- 48
2020-10-19 07:00:00 13.4 10 Nordeste 21 Nordeste 0 -- -- 43
2020-10-19 06:00:00 13.9 11 Nordeste 18 Nordeste 0 -- -- 41
2020-10-19 05:00:00 13.8 11 Nordeste 21 Nordeste 0 -- -- 44
2020-10-19 04:00:00 14.5 14 Nordeste 18 Nordeste 0 -- -- 42
2020-10-19 03:00:00 15.2 10 Nordeste 15 Nordeste 0 -- -- 40
2020-10-19 02:00:00 16 9 Nordeste 21 Este 0 -- -- 38
2020-10-19 01:00:00 17.4 14 Este 22 Nordeste 0 -- -- 34
2020-10-19 00:00:00 16.9 13 Este 32 Este 0 -- -- 36
2020-10-18 23:00:00 17.7 19 Nordeste 28 Este 0 -- -- 35
2020-10-18 22:00:00 18 17 Nordeste 27 Este 0 -- -- 35
2020-10-18 21:00:00 19 16 Este 25 Este 0 -- -- 33
2020-10-18 20:00:00 19.7 17 Este 33 Este 0 -- -- 31
2020-10-18 19:00:00 21.2 22 Este 32 Este 0 -- -- 29
2020-10-18 18:00:00 21.9 19 Este 32 Nordeste 0 -- -- 28
2020-10-18 17:00:00 22.5 17 Nordeste 29 Este 0 -- -- 27
2020-10-18 16:00:00 21.8 17 Nordeste 29 Este 0 -- -- 29
2020-10-18 15:00:00 21.4 18 Nordeste 30 Nordeste 0 -- -- 31
2020-10-18 14:00:00 20.2 16 Este 25 Este 0 -- -- 34
2020-10-18 13:00:00 17.6 16 Nordeste 27 Este 0 -- -- 39
2020-10-18 12:00:00 15.4 18 Este 31 Nordeste 0 -- -- 44
2020-10-18 11:00:00 12.9 18 Nordeste 30 Nordeste 0 -- -- 49
2020-10-18 10:00:00 10.9 19 Nordeste 31 Nordeste 0 -- -- 56
2020-10-18 09:00:00 9.8 10 Nordeste 20 Nordeste 0 -- -- 62
2020-10-18 08:00:00 10.5 12 Nordeste 19 Nordeste 0 -- -- 61
2020-10-18 07:00:00 9.3 11 Nordeste 15 Este 0 -- -- 66
2020-10-18 06:00:00 9.3 9 Nordeste 13 Nordeste 0 -- -- 68
2020-10-18 05:00:00 10.3 8 Nordeste 13 Nordeste 0 -- -- 64
2020-10-18 04:00:00 11.2 9 Nordeste 13 Nordeste 0 -- -- 60
2020-10-18 03:00:00 12.3 10 Nordeste 17 Nordeste 0 -- -- 55
2020-10-18 02:00:00 12.8 8 Nordeste 12 Nordeste 0 -- -- 49
2020-10-18 01:00:00 12.8 6 Nordeste 10 Este 0 -- -- 48
2020-10-18 00:00:00 14.7 8 Este 10 Este 0 -- -- 41
2020-10-17 23:00:00 15.3 6 Este 9 Norte 0 -- -- 41
2020-10-17 22:00:00 16.1 6 Norte 9 Noroeste 0 -- -- 39
2020-10-17 21:00:00 16.9 5 Noroeste 11 Noroeste 0 -- -- 38
2020-10-17 20:00:00 18 6 Noroeste 10 Noroeste 0 -- -- 36
2020-10-17 19:00:00 21.3 4 Sudoeste 10 Sudoeste 0 -- -- 27
2020-10-17 18:00:00 21.3 3 Oeste 15 Sudoeste 0 -- -- 28
2020-10-17 17:00:00 21.7 6 Sur 18 Sur 0 -- -- 26
2020-10-17 16:00:00 21.5 9 Sudoeste 18 Sudoeste 0 -- -- 28
2020-10-17 15:00:00 20.3 3 Noroeste 15 Sur 0 -- -- 32
2020-10-17 14:00:00 18.5 4 Nordeste 11 Nordeste 0 -- -- 35
2020-10-17 13:00:00 16.7 6 Nordeste 14 Nordeste 0 -- -- 40
2020-10-17 12:00:00 14.1 10 Nordeste 16 Nordeste 0 -- -- 46
2020-10-17 11:00:00 11.5 9 Nordeste 16 Nordeste 0 -- -- 56
2020-10-17 10:00:00 8.8 10 Nordeste 18 Nordeste 0 -- -- 66
2020-10-17 09:00:00 8.4 10 Nordeste 17 Nordeste 0 -- -- 68
2020-10-17 08:00:00 7.8 9 Nordeste 13 Nordeste 0 -- -- 70
2020-10-17 07:00:00 8.2 8 Nordeste 12 Nordeste 0 -- -- 67
2020-10-17 06:00:00 8.6 6 Nordeste 14 Nordeste 0 -- -- 65
2020-10-17 05:00:00 9.1 9 Nordeste 13 Nordeste 0 -- -- 64
2020-10-17 04:00:00 9.3 8 Nordeste 15 Nordeste 0 -- -- 63
2020-10-17 03:00:00 10.6 7 Nordeste 10 Nordeste 0 -- -- 57
2020-10-17 02:00:00 10.8 5 Nordeste 8 Nordeste 0 -- -- 52
2020-10-17 01:00:00 10.5 0 Calma 6 Nordeste 0 -- -- 52
2020-10-17 00:00:00 11.3 4 Este 6 Este 0 -- -- 50
2020-10-16 23:00:00 12.8 5 Este 7 Noroeste 0 -- -- 47
2020-10-16 22:00:00 14.8 5 Noroeste 10 Noroeste 0 -- -- 41
2020-10-16 21:00:00 15.4 7 Noroeste 10 Noroeste 0 -- -- 39
2020-10-16 20:00:00 16.3 4 Noroeste 12 Noroeste 0 -- -- 38
2020-10-16 19:00:00 18.5 5 Noroeste 14 Oeste 0 -- -- 34
2020-10-16 18:00:00 19.4 2 Sur 17 Sudoeste 0 -- -- 32
2020-10-16 17:00:00 19.7 7 Sudoeste 15 Norte 0 -- -- 32
2020-10-16 16:00:00 19.2 4 Sudoeste 19 Este 0 -- -- 33
2020-10-16 15:00:00 18.5 5 Sudeste 22 Sudeste 0 -- -- 34
2020-10-16 14:00:00 17.4 6 Sudeste 20 Este 0 -- -- 36
2020-10-16 13:00:00 15.7 11 Este 25 Este 0 -- -- 40
2020-10-16 12:00:00 14.1 14 Nordeste 26 Este 0 -- -- 46
2020-10-16 11:00:00 12.4 14 Este 26 Nordeste 0 -- -- 50
2020-10-16 10:00:00 10.3 18 Nordeste 28 Nordeste 0 -- -- 57
2020-10-16 09:00:00 8.8 16 Nordeste 26 Nordeste 0 -- -- 62
2020-10-16 08:00:00 7.7 7 Este 21 Nordeste 0 -- -- 68
2020-10-16 07:00:00 9.6 13 Nordeste 24 Nordeste 0 -- -- 60
2020-10-16 06:00:00 10.6 16 Nordeste 23 Nordeste 0 -- -- 56
2020-10-16 05:00:00 11 15 Nordeste 22 Este 0 -- -- 55
2020-10-16 04:00:00 11.1 10 Nordeste 18 Nordeste 0 -- -- 53
2020-10-16 03:00:00 11.9 10 Nordeste 19 Nordeste 0 -- -- 49
2020-10-16 02:00:00 13 6 Nordeste 14 Nordeste 0 -- -- 45
2020-10-16 01:00:00 13.5 8 Nordeste 12 Nordeste 0 -- -- 42
2020-10-16 00:00:00 13.9 4 Norte 14 Norte 0 -- -- 41
2020-10-15 23:00:00 13.8 4 Este 11 Nordeste 0 -- -- 41
2020-10-15 22:00:00 14.9 8 Norte 25 Norte 0 -- -- 39
2020-10-15 21:00:00 16.1 10 Norte 25 Nordeste 0 -- -- 36
2020-10-15 20:00:00 16.8 8 Noroeste 17 Noroeste 0 -- -- 37
2020-10-15 19:00:00 19.2 7 Noroeste 18 Norte -- -- -- 30
2020-10-15 18:00:00 19.6 4 Sudeste 19 Oeste 0 -- -- 31
2020-10-15 17:00:00 19.7 11 Noroeste 21 Noroeste 0 -- -- 29
2020-10-15 16:00:00 19.7 8 Nordeste 20 Norte 0 -- -- 28
2020-10-15 15:00:00 19.5 4 Noroeste 13 Nordeste 0 -- -- 31
2020-10-15 14:00:00 17.9 4 Norte 13 Nordeste 0 -- -- 35
2020-10-15 13:00:00 16.6 8 Nordeste 15 Nordeste 0 -- -- 40
2020-10-15 12:00:00 15.3 8 Nordeste 19 Nordeste 0 -- -- 43
2020-10-15 11:00:00 13.8 6 Nordeste 12 Nordeste 0 -- -- 48
2020-10-15 10:00:00 11.9 0 Calma 12 Norte 0 -- -- 52
2020-10-15 09:00:00 10.1 5 Norte 17 Noroeste 0 -- -- 57
2020-10-15 08:00:00 10.3 3 Norte 22 Noroeste 0 -- -- 56
2020-10-15 07:00:00 10.9 13 Norte 23 Noroeste 0 -- -- 53
2020-10-15 06:00:00 11.1 8 Este 26 Noroeste 0 -- -- 53
2020-10-15 05:00:00 11.6 18 Noroeste 30 Noroeste 0 -- -- 54
2020-10-15 04:00:00 11.7 17 Noroeste 35 Noroeste 0 -- -- 55
2020-10-15 03:00:00 12.5 22 Norte 41 Noroeste 0 -- -- 53
2020-10-15 02:00:00 13.4 24 Norte 38 Noroeste 0 -- -- 50
2020-10-15 01:00:00 14.2 22 Norte 41 Norte 0 -- -- 47
2020-10-15 00:00:00 14.2 20 Norte 35 Noroeste 0 -- -- 48
2020-10-14 23:00:00 14.8 24 Noroeste 37 Noroeste 0 -- -- 47
2020-10-14 22:00:00 15.1 20 Noroeste 35 Noroeste 0 -- -- 45
2020-10-14 21:00:00 16.1 18 Noroeste 29 Noroeste 0 -- -- 42
2020-10-14 20:00:00 17.1 12 Noroeste 25 Noroeste 0 -- -- 39
2020-10-14 19:00:00 18.8 7 Norte 31 Norte 0 -- -- 34
2020-10-14 18:00:00 19.2 18 Norte 40 Noroeste 0 -- -- 32
2020-10-14 17:00:00 19.3 20 Noroeste 37 Noroeste 0 -- -- 32
2020-10-14 16:00:00 19.2 20 Noroeste 36 Noroeste 0 -- -- 32
2020-10-14 15:00:00 18.9 17 Noroeste 32 Noroeste 0 -- -- 36
2020-10-14 14:00:00 17.9 18 Norte 37 Noroeste 0 -- -- 37
2020-10-14 13:00:00 16.9 21 Norte 39 Norte 0 -- -- 41
2020-10-14 12:00:00 15.4 24 Norte 44 Nordeste 0 -- -- 45
2020-10-14 11:00:00 13.6 24 Noroeste 41 Noroeste 0 -- -- 54
2020-10-14 10:00:00 11.6 18 Noroeste 30 Noroeste 0 -- -- 61
2020-10-14 09:00:00 10.7 23 Norte 44 Norte 0 -- -- 64
2020-10-14 08:00:00 10.8 18 Norte 57 Noroeste 0 -- -- 64
2020-10-14 07:00:00 11.5 32 Noroeste 62 Noroeste 0 -- -- 61
2020-10-14 06:00:00 11.7 27 Noroeste 48 Noroeste 0 -- -- 61
2020-10-14 05:00:00 12.4 14 Noroeste 31 Noroeste 0 -- -- 59
2020-10-14 04:00:00 12.9 16 Noroeste 40 Noroeste 0 -- -- 59
2020-10-14 03:00:00 13.8 14 Noroeste 33 Noroeste 0 -- -- 62
2020-10-14 02:00:00 14.8 18 Noroeste 36 Noroeste 0 -- -- 60
2020-10-14 01:00:00 15.6 12 Noroeste 28 Oeste 0 -- -- 61
2020-10-14 00:00:00 16.3 12 Oeste 38 Oeste 0 -- -- 60
2020-10-13 23:00:00 17.9 13 Oeste 37 Noroeste 0 -- -- 54
2020-10-13 22:00:00 19.1 24 Noroeste 38 Noroeste 0 -- -- 52
2020-10-13 21:00:00 20.9 25 Noroeste 35 Noroeste 0 -- -- 47
2020-10-13 20:00:00 22.2 7 Oeste 17 Noroeste 0 -- -- 43
2020-10-13 19:00:00 23.3 10 Oeste -- -- -- -- -- 44
2020-10-13 18:00:00 24.7 10 Oeste 27 Oeste 0 -- -- 41
2020-10-13 17:00:00 24.6 14 Noroeste 32 Oeste 0 -- -- 41
2020-10-13 16:00:00 24.5 14 Oeste 25 Oeste 0 -- -- 44
2020-10-13 15:00:00 24.3 8 Oeste 21 Oeste 0 -- -- 42
2020-10-13 14:00:00 22.4 12 Noroeste 21 Noroeste 0 -- -- 45
2020-10-13 13:00:00 21.2 10 Noroeste 21 Noroeste 0 -- -- 46
2020-10-13 12:00:00 18.3 8 Sudoeste 15 Sudoeste 0 -- -- 46
2020-10-13 11:00:00 -- -- -- -- -- -- -- -- --
2020-10-13 10:00:00 -- -- -- -- -- -- -- -- --
2020-10-13 09:00:00 8.7 5 Este 8 Este 0 -- -- 62
2020-10-13 08:00:00 8.3 4 Nordeste 8 Este 0 -- -- 64
2020-10-13 07:00:00 8.7 5 Nordeste 6 Nordeste 0 -- -- 63
2020-10-13 06:00:00 9.8 3 Nordeste 8 Este 0 -- -- 60
2020-10-13 05:00:00 11.7 4 Este 9 Sur 0 -- -- 55
2020-10-13 04:00:00 11 0 Calma 8 Sudeste 0 -- -- 56
2020-10-13 03:00:00 12.4 4 Sudeste 9 Sudeste 0 -- -- 48
2020-10-13 02:00:00 14.2 5 Norte 8 Norte 0 -- -- 43
2020-10-13 01:00:00 -- -- -- -- -- -- -- -- --
2020-10-13 00:00:00 15.3 0 Calma 11 Norte 0 -- -- 38
2020-10-12 23:00:00 14.9 5 Norte 17 Norte 0 -- -- 40
2020-10-12 22:00:00 16.7 13 Norte 23 Noroeste 0 -- -- 35
2020-10-12 21:00:00 17.7 12 Norte 27 Noroeste 0 -- -- 33
2020-10-12 20:00:00 -- -- -- -- -- -- -- -- --
2020-10-12 19:00:00 -- -- -- -- -- -- -- -- --
2020-10-12 18:00:00 -- -- -- -- -- -- -- -- --
2020-10-12 17:00:00 -- -- -- -- -- -- -- -- --
2020-10-12 16:00:00 -- -- -- -- -- -- -- -- --
2020-10-12 15:00:00 -- -- -- -- -- -- -- -- --
2020-10-12 14:00:00 -- -- -- -- -- -- -- -- --
2020-10-12 13:00:00 -- -- -- -- -- -- -- -- --
2020-10-12 12:00:00 -- -- -- -- -- -- -- -- --
2020-10-12 11:00:00 -- -- -- -- -- -- -- -- --
2020-10-12 10:00:00 -- -- -- -- -- -- -- -- --
2020-10-12 09:00:00 -- -- -- -- -- -- -- -- --
2020-10-12 08:00:00 -- -- -- -- -- -- -- -- --
2020-10-12 07:00:00 -- -- -- -- -- -- -- -- --
2020-10-12 06:00:00 -- -- -- -- -- -- -- -- --
2020-10-12 05:00:00 -- -- -- -- -- -- -- -- --
2020-10-12 04:00:00 -- -- -- -- -- -- -- -- --
2020-10-12 03:00:00 -- -- -- -- -- -- -- -- --
2020-10-12 02:00:00 -- -- -- -- -- -- -- -- --
2020-10-12 01:00:00 -- -- -- -- -- -- -- -- --
2020-10-12 00:00:00 -- -- -- -- -- -- -- -- --
2020-10-11 23:00:00 -- -- -- -- -- -- -- -- --
2020-10-11 22:00:00 -- -- -- -- -- -- -- -- --
2020-10-11 21:00:00 -- -- -- -- -- -- -- -- --
2020-10-11 20:00:00 -- -- -- -- -- -- -- -- --
2020-10-11 19:00:00 -- -- -- -- -- -- -- -- --
2020-10-11 18:00:00 -- -- -- -- -- -- -- -- --
2020-10-11 17:00:00 -- -- -- -- -- -- -- -- --
2020-10-11 16:00:00 -- -- -- -- -- -- -- -- --
2020-10-11 15:00:00 -- -- -- -- -- -- -- -- --
2020-10-11 14:00:00 -- -- -- -- -- -- -- -- --
2020-10-11 13:00:00 -- -- -- -- -- -- -- -- --
2020-10-11 12:00:00 -- -- -- -- -- -- -- -- --
2020-10-11 11:00:00 -- -- -- -- -- -- -- -- --
2020-10-11 10:00:00 -- -- -- -- -- -- -- -- --
2020-10-11 09:00:00 -- -- -- -- -- -- -- -- --
2020-10-11 08:00:00 -- -- -- -- -- -- -- -- --
2020-10-11 07:00:00 -- -- -- -- -- -- -- -- --
2020-10-11 06:00:00 -- -- -- -- -- -- -- -- --
2020-10-11 05:00:00 -- -- -- -- -- -- -- -- --
2020-10-11 04:00:00 -- -- -- -- -- -- -- -- --
2020-10-11 03:00:00 -- -- -- -- -- -- -- -- --
2020-10-11 02:00:00 -- -- -- -- -- -- -- -- --
2020-10-11 01:00:00 -- -- -- -- -- -- -- -- --
2020-10-11 00:00:00 -- -- -- -- -- -- -- -- --
2020-10-10 23:00:00 -- -- -- -- -- -- -- -- --
2020-10-10 22:00:00 21 22 Norte 40 Norte 0 -- -- 46
2020-10-10 21:00:00 22.4 21 Norte 35 Norte 0 -- -- 40
2020-10-10 20:00:00 23.8 18 Norte 28 Norte 0 -- -- 36
2020-10-10 19:00:00 25.7 15 Noroeste 28 Norte 0 -- -- 33
2020-10-10 18:00:00 26.4 16 Noroeste 28 Noroeste 0 -- -- 30
2020-10-10 17:00:00 27.3 9 Noroeste 21 Nordeste 0 -- -- 33
2020-10-10 16:00:00 27.2 8 Noroeste 23 Norte 0 -- -- 33
2020-10-10 15:00:00 26.3 10 Norte 18 Nordeste 0 -- -- 32
2020-10-10 14:00:00 25.6 10 Nordeste 20 Nordeste 0 -- -- 36
2020-10-10 13:00:00 24.2 10 Nordeste 21 Este 0 -- -- 40
2020-10-10 12:00:00 22.1 8 Nordeste 14 Nordeste 0 -- -- 45
2020-10-10 11:00:00 20.3 5 Nordeste 10 Nordeste 0 -- -- 49
2020-10-10 10:00:00 16.4 4 Este 9 Sudeste 0 -- -- 60
2020-10-10 09:00:00 14.1 4 Nordeste 20 Noroeste 0 -- -- 64
2020-10-10 08:00:00 15.3 3 Oeste 6 Noroeste 0 -- -- 58
2020-10-10 07:00:00 15 0 Calma 14 Noroeste 0 -- -- 60
2020-10-10 06:00:00 19.6 4 Norte 12 Sudoeste 0 -- -- 45
2020-10-10 05:00:00 20.3 5 Oeste 14 Este 0 -- -- 43
2020-10-10 04:00:00 19.6 5 Este 27 Norte 0 -- -- 46
2020-10-10 03:00:00 21 15 Noroeste 24 Norte 0 -- -- 42
2020-10-10 02:00:00 18.8 4 Este 9 Sur 0 -- -- 48
2020-10-10 01:00:00 21.2 5 Noroeste 12 Oeste 0 -- -- 39
2020-10-10 00:00:00 20.9 3 Este 9 Sudoeste 0 -- -- 44
2020-10-09 23:00:00 23.2 4 Oeste 12 Oeste 0 -- -- 38
2020-10-09 22:00:00 23.3 5 Noroeste 8 Noroeste 0 -- -- 37
2020-10-09 21:00:00 23.4 6 Oeste 8 Noroeste 0 -- -- 38
2020-10-09 20:00:00 24.5 5 Noroeste 11 Noroeste 0 -- -- 35
2020-10-09 19:00:00 26.7 4 Oeste 16 Oeste 0 -- -- 33
2020-10-09 18:00:00 28.3 7 Oeste 15 Sudoeste 0 -- -- 33
2020-10-09 17:00:00 28.9 5 Oeste 18 Sudoeste 0 -- -- 30
2020-10-09 16:00:00 27.9 8 Noroeste 15 Noroeste 0 -- -- 33
2020-10-09 15:00:00 28.2 6 Sur 14 Sudoeste 0 -- -- 29
2020-10-09 14:00:00 25.9 3 Norte 13 Este 0 -- -- 37
2020-10-09 13:00:00 24 8 Nordeste 15 Este 0 -- -- 43
2020-10-09 12:00:00 21.7 9 Este 14 Nordeste 0 -- -- 51
2020-10-09 11:00:00 18.9 9 Nordeste 18 Este 0 -- -- 59
2020-10-09 10:00:00 16.2 7 Este 10 Este 0 -- -- 70
2020-10-09 09:00:00 14.3 8 Este 11 Este 0 -- -- 77
2020-10-09 08:00:00 15.1 5 Nordeste 12 Este 0 -- -- 73
2020-10-09 07:00:00 15.1 4 Este 9 Este 0 -- -- 73
2020-10-09 06:00:00 16.7 8 Este 12 Este 0 -- -- 68
2020-10-09 05:00:00 17.9 6 Nordeste 9 Nordeste 0 -- -- 63
2020-10-09 04:00:00 17.8 0 Calma 4 Este 0 -- -- 64
2020-10-09 03:00:00 17.7 0 Calma 12 Nordeste 0 -- -- 63
2020-10-09 02:00:00 19.5 6 Este 11 Nordeste 0 -- -- 56
2020-10-09 01:00:00 19.2 7 Nordeste 9 Nordeste 0 -- -- 56
2020-10-09 00:00:00 21.1 6 Este 11 Este 0 -- -- 50
2020-10-08 23:00:00 22 6 Nordeste 12 Nordeste 0 -- -- 47
2020-10-08 22:00:00 22.1 7 Nordeste 10 Nordeste 0 -- -- 47
2020-10-08 21:00:00 23.3 8 Nordeste 10 Nordeste 0 -- -- 44
2020-10-08 20:00:00 24.8 4 Norte 14 Este 0 -- -- 41
2020-10-08 19:00:00 26.6 12 Este 17 Este 0 -- -- 37
2020-10-08 18:00:00 28.3 7 Nordeste 15 Nordeste 0 -- -- 34
2020-10-08 17:00:00 27.8 8 Nordeste 14 Este 0 -- -- 36
2020-10-08 16:00:00 28.6 7 Nordeste 13 Nordeste 0 -- -- 33
2020-10-08 15:00:00 27.3 4 Este 17 Nordeste 0 -- -- 36
2020-10-08 14:00:00 24.7 11 Nordeste 22 Este 0 -- -- 44
2020-10-08 13:00:00 23.2 14 Este 28 Este 0 -- -- 49
2020-10-08 12:00:00 22.2 16 Nordeste 28 Este 0 -- -- 50
2020-10-08 11:00:00 20 15 Nordeste 28 Este 0 -- -- 55
2020-10-08 10:00:00 17 17 Nordeste 26 Nordeste 0 -- -- 63
2020-10-08 09:00:00 15.8 19 Nordeste 27 Nordeste 0 -- -- 68
2020-10-08 08:00:00 15.3 13 Nordeste 24 Nordeste 0 -- -- 73
2020-10-08 07:00:00 14.7 8 Nordeste 15 Nordeste 0 -- -- 77
2020-10-08 06:00:00 14.8 3 Nordeste 13 Este 0 -- -- 78
2020-10-08 05:00:00 16.3 7 Este 13 Este 0 -- -- 72
2020-10-08 04:00:00 16.7 6 Este 22 Nordeste 0 -- -- 66
2020-10-08 03:00:00 18.3 13 Nordeste 20 Este 0 -- -- 58
2020-10-08 02:00:00 19.5 11 Nordeste 16 Nordeste 0 -- -- 53
2020-10-08 01:00:00 18.4 6 Nordeste 8 Nordeste 0 -- -- 56
2020-10-08 00:00:00 19.7 6 Nordeste 11 Nordeste 0 -- -- 51
2020-10-07 23:00:00 20.7 8 Nordeste 10 Nordeste 0 -- -- 48
2020-10-07 22:00:00 21.9 6 Nordeste 10 Nordeste 0 -- -- 46
2020-10-07 21:00:00 22.1 6 Nordeste 10 Nordeste 0 -- -- 47
2020-10-07 20:00:00 24.1 2 Norte 5 Norte 0 -- -- 41
2020-10-07 19:00:00 26.3 2 Norte 14 Nordeste 0 -- -- 37
2020-10-07 18:00:00 26.9 8 Nordeste 15 Este 0 -- -- 34
2020-10-07 17:00:00 27.3 4 Nordeste 15 Este 0 -- -- 35
2020-10-07 16:00:00 27.2 4 Sudeste 13 Este 0 -- -- 37
2020-10-07 15:00:00 25.2 6 Este 21 Este 0 -- -- 43
2020-10-07 14:00:00 23.6 12 Este 23 Este 0 -- -- 51
2020-10-07 13:00:00 22.1 11 Nordeste 20 Este 0 -- -- 57
2020-10-07 12:00:00 20.2 13 Nordeste 19 Nordeste 0 -- -- 59
2020-10-07 11:00:00 19.3 9 Nordeste 15 Nordeste 0 -- -- 59
2020-10-07 10:00:00 16 4 Este 15 Norte 0 -- -- 72
2020-10-07 09:00:00 15.1 6 Norte 29 Noroeste 0 -- -- 74
2020-10-07 08:00:00 15.7 5 Sudeste 23 Norte 0 -- -- 73
2020-10-07 07:00:00 16.5 5 Norte 26 Noroeste 0 -- -- 70
2020-10-07 06:00:00 17.5 18 Norte 35 Noroeste 0 -- -- 67
2020-10-07 05:00:00 18 15 Norte 30 Norte 0 -- -- 64
2020-10-07 04:00:00 18.6 16 Norte 30 Norte 0 -- -- 61
2020-10-07 03:00:00 19.3 14 Noroeste 27 Noroeste 0 -- -- 57
2020-10-07 02:00:00 19.8 18 Noroeste 35 Norte 0 -- -- 55
2020-10-07 01:00:00 20.6 16 Noroeste 33 Noroeste 0 -- -- 53
2020-10-07 00:00:00 21 7 Noroeste 31 Noroeste 0 -- -- 52
2020-10-06 23:00:00 21.4 10 Noroeste 26 Noroeste 0 -- -- 52
2020-10-06 22:00:00 22.4 9 Noroeste 21 Oeste 0 -- -- 49
2020-10-06 21:00:00 23.3 12 Noroeste 24 Noroeste 0 -- -- 48
2020-10-06 20:00:00 24.1 10 Noroeste 21 Noroeste 0 -- -- 50
2020-10-06 19:00:00 26 11 Noroeste 25 Noroeste 0 -- -- 44
2020-10-06 18:00:00 26.7 11 Noroeste 30 Oeste 0 -- -- 41
2020-10-06 17:00:00 26.5 13 Noroeste 26 Noroeste 0 -- -- 43
2020-10-06 16:00:00 26.3 11 Noroeste 23 Noroeste 0 -- -- 45
2020-10-06 15:00:00 25.5 10 Noroeste 29 Norte 0 -- -- 48
2020-10-06 14:00:00 24.4 13 Norte 27 Norte 0 -- -- 52
2020-10-06 13:00:00 22.8 15 Norte 31 Norte 0 -- -- 55
2020-10-06 12:00:00 21 13 Norte 36 Noroeste 0 -- -- 63
2020-10-06 11:00:00 19.3 15 Noroeste 32 Noroeste 0 -- -- 68
2020-10-06 10:00:00 16.6 6 Oeste 13 Oeste 0 -- -- 78
2020-10-06 09:00:00 14.4 8 Sudoeste 12 Sudoeste 0 -- -- 85
2020-10-06 08:00:00 13.6 4 Oeste 11 Oeste 0 -- -- 87
2020-10-06 07:00:00 14.5 9 Oeste 23 Oeste 0 -- -- 83
2020-10-06 06:00:00 14.7 9 Oeste 21 Sudoeste 0 -- -- 82
2020-10-06 05:00:00 14.9 8 Oeste 17 Oeste 0 -- -- 81
2020-10-06 04:00:00 15.1 6 Oeste 19 Oeste 0 -- -- 79
2020-10-06 03:00:00 16.9 10 Oeste 30 Oeste 0 -- -- 72
2020-10-06 02:00:00 17.3 22 Noroeste 31 Noroeste 0 -- -- 71
2020-10-06 01:00:00 17.1 13 Noroeste 24 Noroeste 0 -- -- 69
2020-10-06 00:00:00 17.4 11 Noroeste 20 Noroeste 0 -- -- 65
2020-10-05 23:00:00 18.6 8 Noroeste 19 Oeste 0 -- -- 60
2020-10-05 22:00:00 18.9 9 Oeste 21 Oeste 0 -- -- 58
2020-10-05 21:00:00 18.3 9 Oeste 22 Noroeste 0 -- -- 58
2020-10-05 20:00:00 19.2 8 Noroeste 20 Noroeste 0 -- -- 55
2020-10-05 19:00:00 21.2 10 Oeste 29 Oeste 0 -- -- 47
2020-10-05 18:00:00 21.8 12 Oeste 31 Oeste 0 -- -- 42
2020-10-05 17:00:00 21.3 13 Noroeste 30 Noroeste 0 -- -- 43
2020-10-05 16:00:00 20.6 15 Noroeste 27 Noroeste 0 -- -- 42
2020-10-05 15:00:00 19.9 13 Noroeste 31 Noroeste 0 -- -- 42
2020-10-05 14:00:00 19.2 15 Noroeste 27 Noroeste 0 -- -- 42
2020-10-05 13:00:00 17.9 10 Noroeste 34 Norte 0 -- -- 51
2020-10-05 12:00:00 16.1 13 Noroeste 29 Noroeste 0 -- -- 58
2020-10-05 11:00:00 14.8 11 Noroeste 29 Noroeste 0 -- -- 61
2020-10-05 10:00:00 13.5 14 Noroeste 27 Noroeste 0 -- -- 65
2020-10-05 09:00:00 11.4 7 Oeste 20 Noroeste 0 -- -- 73
2020-10-05 08:00:00 11.6 7 Oeste 15 Oeste 0 -- -- 72
2020-10-05 07:00:00 11.3 8 Oeste 23 Oeste 0 -- -- 73
2020-10-05 06:00:00 12 10 Noroeste 22 Noroeste 0 -- -- 69
2020-10-05 05:00:00 12 9 Oeste 23 Oeste 0 -- -- 69
2020-10-05 04:00:00 12.3 9 Oeste 21 Noroeste 0 -- -- 68
2020-10-05 03:00:00 12.7 9 Oeste 35 Oeste 0 -- -- 66
2020-10-05 02:00:00 13.2 14 Noroeste 33 Oeste 0 -- -- 64
2020-10-05 01:00:00 13.2 15 Noroeste 32 Oeste 0 -- -- 63
2020-10-05 00:00:00 13.9 11 Oeste 31 Oeste 0 -- -- 59
2020-10-04 23:00:00 14.5 14 Noroeste 30 Oeste 0 -- -- 54
2020-10-04 22:00:00 15.1 13 Noroeste 28 Oeste 0 -- -- 52
2020-10-04 21:00:00 16.2 13 Noroeste 34 Oeste 0 -- -- 47
2020-10-04 20:00:00 17.4 13 Noroeste 28 Noroeste 0 -- -- 44
2020-10-04 19:00:00 19.3 17 Noroeste 37 Noroeste 0 -- -- 38
2020-10-04 18:00:00 20.2 19 Oeste 41 Oeste 0 -- -- 37
2020-10-04 17:00:00 20.1 21 Noroeste 37 Oeste 0 -- -- 38
2020-10-04 16:00:00 19.4 15 Noroeste 37 Oeste 0 -- -- 43
2020-10-04 15:00:00 17.4 8 Oeste 27 Oeste 0 -- -- 65
2020-10-04 14:00:00 16.1 9 Oeste 22 Sudoeste 0 -- -- 74
2020-10-04 13:00:00 13 9 Oeste 21 Oeste 0 -- -- 95
2020-10-04 12:00:00 12.3 8 Oeste 23 Sudoeste 0 -- -- 95
2020-10-04 11:00:00 11.8 10 Sudoeste 17 Sudoeste 0 -- -- 90
2020-10-04 10:00:00 11.6 6 Sudoeste 12 Sudoeste 0 -- -- 89
2020-10-04 09:00:00 10.9 6 Sudoeste 15 Sudoeste 0 -- -- 91
2020-10-04 08:00:00 10.3 4 Oeste 12 Oeste 0 -- -- 91
2020-10-04 07:00:00 9.2 6 Sudoeste 10 Sudoeste 0 -- -- 92
2020-10-04 06:00:00 8.1 4 Oeste 13 Sudoeste 0 -- -- 89
2020-10-04 05:00:00 8.9 7 Sudoeste 10 Sudoeste 0 -- -- 84
2020-10-04 04:00:00 9.3 7 Sudoeste 15 Sudoeste 0 -- -- 81
2020-10-04 03:00:00 10.1 9 Sudoeste 23 Oeste 0 -- -- 75
2020-10-04 02:00:00 12.3 11 Oeste 28 Noroeste 0 -- -- 68
2020-10-04 01:00:00 12.1 9 Oeste 21 Oeste 0 -- -- 67
2020-10-04 00:00:00 12.6 9 Noroeste 20 Noroeste 0 -- -- 62
2020-10-03 23:00:00 13 8 Oeste 22 Oeste 0 -- -- 61
2020-10-03 22:00:00 14.4 12 Oeste 24 Oeste 0 -- -- 56
2020-10-03 21:00:00 14.7 8 Noroeste 19 Oeste 0 -- -- 52
2020-10-03 20:00:00 15.7 12 Oeste 23 Oeste 0 -- -- 48
2020-10-03 19:00:00 16.7 15 Noroeste 35 Oeste 0 -- -- 46
2020-10-03 18:00:00 17.4 15 Noroeste 34 Oeste 0 -- -- 43
2020-10-03 17:00:00 18.8 15 Noroeste 35 Oeste 0 -- -- 42
2020-10-03 16:00:00 18.3 18 Oeste 40 Noroeste 0 -- -- 40
2020-10-03 15:00:00 17.8 19 Oeste 38 Oeste 0 -- -- 39
2020-10-03 14:00:00 17 14 Oeste 40 Oeste 0 -- -- 47
2020-10-03 13:00:00 15.7 13 Oeste 43 Noroeste 0 -- -- 52
2020-10-03 12:00:00 14.2 19 Oeste 39 Noroeste 0 -- -- 53
2020-10-03 11:00:00 13 11 Oeste 27 Oeste 0 -- -- 60
2020-10-03 10:00:00 11.2 12 Oeste 27 Oeste 0 -- -- 67
2020-10-03 09:00:00 9.6 11 Oeste 24 Oeste 0 -- -- 72
2020-10-03 08:00:00 9.1 10 Oeste 24 Noroeste 0 -- -- 73
2020-10-03 07:00:00 9.3 10 Oeste 21 Oeste 0 -- -- 75
2020-10-03 06:00:00 9.8 10 Oeste 23 Oeste 0 -- -- 73
2020-10-03 05:00:00 9.9 11 Oeste 24 Oeste 0 -- -- 72
2020-10-03 04:00:00 10.4 12 Oeste 32 Oeste 0 -- -- 70
2020-10-03 03:00:00 10.6 15 Oeste 32 Oeste 0 -- -- 67
2020-10-03 02:00:00 10.8 13 Oeste 32 Oeste 0 -- -- 66
2020-10-03 01:00:00 10.6 14 Oeste 31 Oeste 0 -- -- 66
2020-10-03 00:00:00 11.2 13 Oeste 38 Oeste 0 -- -- 61
2020-10-02 23:00:00 11.9 14 Noroeste 34 Noroeste 0 -- -- 58
2020-10-02 22:00:00 12.3 15 Noroeste 29 Noroeste 0 -- -- 55
2020-10-02 21:00:00 13 13 Oeste 37 Sudoeste 0 -- -- 54
2020-10-02 20:00:00 13.7 12 Oeste 39 Oeste 0 -- -- 53
2020-10-02 19:00:00 15.3 16 Oeste 45 Oeste 0 -- -- 48
2020-10-02 18:00:00 15.9 21 Oeste 48 Noroeste 0 -- -- 45
2020-10-02 17:00:00 15.6 21 Oeste 44 Noroeste 0 -- -- 47
2020-10-02 16:00:00 16 30 Noroeste 48 Noroeste 0 -- -- 50
2020-10-02 15:00:00 15.4 22 Noroeste 56 Noroeste 0 -- -- 54
2020-10-02 14:00:00 13.6 18 Noroeste 46 Noroeste 0.8 -- -- 73
2020-10-02 13:00:00 14.8 18 Oeste 55 Oeste 0.2 -- -- 77
2020-10-02 12:00:00 15.5 21 Oeste 51 Sudoeste 0.4 -- -- 81
2020-10-02 11:00:00 16.7 27 Oeste 54 Sudoeste 0 -- -- 90
2020-10-02 10:00:00 15.9 29 Sudoeste 53 Sudoeste 1 -- -- 96
2020-10-02 09:00:00 16.9 33 Sudoeste 58 Sudoeste 0 -- -- 84
2020-10-02 08:00:00 16.6 28 Sudoeste 55 Sudoeste 0 -- -- 85
2020-10-02 07:00:00 16 24 Sudoeste 46 Sudoeste 0 -- -- 84
2020-10-02 06:00:00 15.1 18 Sudoeste 37 Sudoeste 0 -- -- 85
2020-10-02 05:00:00 14.9 23 Sudoeste 39 Sudoeste 0 -- -- 83
2020-10-02 04:00:00 14.7 19 Sudoeste 38 Sudoeste 0 -- -- 82
2020-10-02 03:00:00 14.4 19 Sudoeste 35 Sudoeste 0 -- -- 78
2020-10-02 02:00:00 14.5 18 Sudoeste 30 Sudoeste 0 -- -- 74
2020-10-02 01:00:00 15.1 15 Sudoeste 33 Sudoeste 0 -- -- 68
2020-10-02 00:00:00 15.6 13 Oeste 31 Oeste 0 -- -- 63
2020-10-01 23:00:00 16.5 13 Oeste 32 Oeste 0 -- -- 61
2020-10-01 22:00:00 17.4 15 Oeste 35 Oeste 0 -- -- 59
2020-10-01 21:00:00 18.4 12 Oeste 31 Oeste 0 -- -- 53
2020-10-01 20:00:00 19.7 17 Oeste 36 Oeste 0 -- -- 49
2020-10-01 19:00:00 21.4 17 Sudoeste 42 Sudoeste 0 -- -- 48
2020-10-01 18:00:00 23.2 13 Oeste 32 Oeste 0 -- -- 43
2020-10-01 17:00:00 23.3 14 Oeste 33 Oeste 0 -- -- 40
2020-10-01 16:00:00 23.3 18 Oeste 32 Oeste 0 -- -- 44
2020-10-01 15:00:00 22.4 15 Oeste 33 Oeste 0 -- -- 49
2020-10-01 14:00:00 21.5 18 Oeste 29 Noroeste 0 -- -- 51
2020-10-01 13:00:00 20.6 10 Noroeste 23 Oeste 0 -- -- 56
2020-10-01 12:00:00 19.7 9 Oeste 21 Noroeste 0 -- -- 60
2020-10-01 11:00:00 17.7 6 Oeste 17 Oeste 0 -- -- 67
2020-10-01 10:00:00 13.7 4 Sudoeste 14 Sur 0 -- -- 79
2020-10-01 09:00:00 11.3 6 Sudoeste 14 Sudoeste 0 -- -- 88
2020-10-01 08:00:00 11 9 Sudoeste 14 Sudoeste 0 -- -- 91
2020-10-01 07:00:00 11.3 6 Sudoeste 13 Oeste 0 -- -- 92
2020-10-01 06:00:00 12 9 Sudoeste 14 Sudoeste 0 -- -- 90
2020-10-01 05:00:00 12.6 8 Oeste 12 Sudoeste 0 -- -- 88
2020-10-01 04:00:00 13.5 3 Sudoeste 11 Sudoeste 0 -- -- 86
2020-10-01 03:00:00 14.4 7 Sudoeste 18 Sudoeste 0 -- -- 84
2020-10-01 02:00:00 15.6 12 Sudoeste 18 Sudoeste 0 -- -- 80
2020-10-01 01:00:00 17.3 9 Sudoeste 21 Sudoeste 0 -- -- 73
2020-10-01 00:00:00 18.9 13 Sudoeste 21 Sudoeste 0 -- -- 59